sensor_id;sensor_type;location;lat;lon;timestamp;P1;durP1;ratioP1;P2;durP2;ratioP2
53010;SDS011;42803;55.762;38.084;2023-06-10T00:00:31;3.05;;;2.17;;
53010;SDS011;42803;55.762;38.084;2023-06-10T00:03:00;5.03;;;2.35;;
53010;SDS011;42803;55.762;38.084;2023-06-10T00:05:29;5.25;;;2.30;;
53010;SDS011;42803;55.762;38.084;2023-06-10T00:08:00;4.35;;;2.38;;
53010;SDS011;42803;55.762;38.084;2023-06-10T00:10:34;3.85;;;2.22;;
53010;SDS011;42803;55.762;38.084;2023-06-10T00:13:03;3.10;;;2.28;;
53010;SDS011;42803;55.762;38.084;2023-06-10T00:15:35;4.35;;;2.05;;
53010;SDS011;42803;55.762;38.084;2023-06-10T00:18:05;4.25;;;2.22;;
53010;SDS011;42803;55.762;38.084;2023-06-10T00:20:37;2.78;;;2.10;;
53010;SDS011;42803;55.762;38.084;2023-06-10T00:23:08;4.15;;;2.47;;
53010;SDS011;42803;55.762;38.084;2023-06-10T00:25:37;2.85;;;2.15;;
53010;SDS011;42803;55.762;38.084;2023-06-10T00:28:06;2.70;;;1.65;;
53010;SDS011;42803;55.762;38.084;2023-06-10T00:30:35;3.58;;;2.33;;
53010;SDS011;42803;55.762;38.084;2023-06-10T00:33:04;4.13;;;1.90;;
53010;SDS011;42803;55.762;38.084;2023-06-10T00:35:34;4.50;;;2.53;;
53010;SDS011;42803;55.762;38.084;2023-06-10T00:38:03;3.10;;;2.08;;
53010;SDS011;42803;55.762;38.084;2023-06-10T00:40:35;4.10;;;1.90;;
53010;SDS011;42803;55.762;38.084;2023-06-10T00:43:08;5.22;;;2.25;;
53010;SDS011;42803;55.762;38.084;2023-06-10T00:45:38;4.15;;;2.10;;
53010;SDS011;42803;55.762;38.084;2023-06-10T00:48:07;7.75;;;2.10;;
53010;SDS011;42803;55.762;38.084;2023-06-10T00:50:37;3.28;;;2.03;;
53010;SDS011;42803;55.762;38.084;2023-06-10T00:53:07;2.60;;;1.65;;
53010;SDS011;42803;55.762;38.084;2023-06-10T00:55:38;2.60;;;2.08;;
53010;SDS011;42803;55.762;38.084;2023-06-10T00:58:09;6.53;;;2.17;;
53010;SDS011;42803;55.762;38.084;2023-06-10T01:00:39;2.53;;;1.90;;
53010;SDS011;42803;55.762;38.084;2023-06-10T01:03:08;5.03;;;1.98;;
53010;SDS011;42803;55.762;38.084;2023-06-10T01:05:38;3.55;;;1.60;;
53010;SDS011;42803;55.762;38.084;2023-06-10T01:08:09;3.50;;;2.08;;
53010;SDS011;42803;55.762;38.084;2023-06-10T01:10:49;3.45;;;2.22;;
53010;SDS011;42803;55.762;38.084;2023-06-10T01:13:22;2.92;;;1.98;;
53010;SDS011;42803;55.762;38.084;2023-06-10T01:15:57;2.65;;;1.38;;
53010;SDS011;42803;55.762;38.084;2023-06-10T01:18:29;5.07;;;2.05;;
53010;SDS011;42803;55.762;38.084;2023-06-10T01:20:59;2.67;;;1.75;;
53010;SDS011;42803;55.762;38.084;2023-06-10T01:23:29;4.22;;;2.08;;
53010;SDS011;42803;55.762;38.084;2023-06-10T01:26:00;4.25;;;1.80;;
53010;SDS011;42803;55.762;38.084;2023-06-10T01:28:33;2.55;;;1.88;;
53010;SDS011;42803;55.762;38.084;2023-06-10T01:31:07;3.03;;;1.92;;
53010;SDS011;42803;55.762;38.084;2023-06-10T01:33:43;2.55;;;1.65;;
53010;SDS011;42803;55.762;38.084;2023-06-10T01:36:15;6.80;;;2.10;;
53010;SDS011;42803;55.762;38.084;2023-06-10T01:38:48;3.15;;;1.77;;
53010;SDS011;42803;55.762;38.084;2023-06-10T01:41:18;2.67;;;1.80;;
53010;SDS011;42803;55.762;38.084;2023-06-10T01:43:49;3.72;;;1.83;;
53010;SDS011;42803;55.762;38.084;2023-06-10T01:46:19;1.90;;;1.60;;
53010;SDS011;42803;55.762;38.084;2023-06-10T01:48:48;3.10;;;1.80;;
53010;SDS011;42803;55.762;38.084;2023-06-10T01:51:18;3.95;;;1.70;;
53010;SDS011;42803;55.762;38.084;2023-06-10T01:53:48;2.85;;;1.52;;
53010;SDS011;42803;55.762;38.084;2023-06-10T01:56:17;2.97;;;1.55;;
53010;SDS011;42803;55.762;38.084;2023-06-10T01:58:47;3.10;;;1.52;;
53010;SDS011;42803;55.762;38.084;2023-06-10T02:01:16;3.75;;;1.77;;
53010;SDS011;42803;55.762;38.084;2023-06-10T02:03:45;3.55;;;1.98;;
53010;SDS011;42803;55.762;38.084;2023-06-10T02:06:14;4.45;;;1.95;;
53010;SDS011;42803;55.762;38.084;2023-06-10T02:08:44;3.15;;;1.58;;
53010;SDS011;42803;55.762;38.084;2023-06-10T02:11:15;4.13;;;1.60;;
53010;SDS011;42803;55.762;38.084;2023-06-10T02:13:44;2.33;;;1.65;;
53010;SDS011;42803;55.762;38.084;2023-06-10T02:16:13;3.22;;;1.52;;
53010;SDS011;42803;55.762;38.084;2023-06-10T02:18:44;2.85;;;1.80;;
53010;SDS011;42803;55.762;38.084;2023-06-10T02:21:13;2.30;;;1.33;;
53010;SDS011;42803;55.762;38.084;2023-06-10T02:23:42;2.72;;;1.50;;
53010;SDS011;42803;55.762;38.084;2023-06-10T02:26:11;2.83;;;1.75;;
53010;SDS011;42803;55.762;38.084;2023-06-10T02:28:43;4.30;;;1.58;;
53010;SDS011;42803;55.762;38.084;2023-06-10T02:31:14;2.90;;;1.52;;
53010;SDS011;42803;55.762;38.084;2023-06-10T02:33:46;4.70;;;1.40;;
53010;SDS011;42803;55.762;38.084;2023-06-10T02:36:16;2.33;;;1.08;;
53010;SDS011;42803;55.762;38.084;2023-06-10T02:38:46;1.55;;;1.40;;
53010;SDS011;42803;55.762;38.084;2023-06-10T02:41:15;4.22;;;1.50;;
53010;SDS011;42803;55.762;38.084;2023-06-10T02:43:47;3.05;;;1.33;;
53010;SDS011;42803;55.762;38.084;2023-06-10T02:46:16;2.05;;;1.23;;
53010;SDS011;42803;55.762;38.084;2023-06-10T02:48:46;3.10;;;1.38;;
53010;SDS011;42803;55.762;38.084;2023-06-10T02:51:20;2.05;;;1.35;;
53010;SDS011;42803;55.762;38.084;2023-06-10T02:53:56;3.03;;;1.10;;
53010;SDS011;42803;55.762;38.084;2023-06-10T02:56:25;1.77;;;1.23;;
53010;SDS011;42803;55.762;38.084;2023-06-10T02:58:58;4.05;;;1.40;;
53010;SDS011;42803;55.762;38.084;2023-06-10T03:01:30;3.20;;;1.15;;
53010;SDS011;42803;55.762;38.084;2023-06-10T03:04:04;1.88;;;1.30;;
53010;SDS011;42803;55.762;38.084;2023-06-10T03:06:35;5.13;;;1.20;;
53010;SDS011;42803;55.762;38.084;2023-06-10T03:09:28;2.25;;;1.20;;
53010;SDS011;42803;55.762;38.084;2023-06-10T03:12:00;1.70;;;1.10;;
53010;SDS011;42803;55.762;38.084;2023-06-10T03:14:37;2.28;;;1.15;;
53010;SDS011;42803;55.762;38.084;2023-06-10T03:17:06;2.35;;;1.08;;
53010;SDS011;42803;55.762;38.084;2023-06-10T03:19:40;1.98;;;1.23;;
53010;SDS011;42803;55.762;38.084;2023-06-10T03:22:10;1.80;;;1.08;;
53010;SDS011;42803;55.762;38.084;2023-06-10T03:24:58;4.10;;;1.50;;
53010;SDS011;42803;55.762;38.084;2023-06-10T03:27:31;1.42;;;1.00;;
53010;SDS011;42803;55.762;38.084;2023-06-10T03:30:05;2.95;;;1.10;;
53010;SDS011;42803;55.762;38.084;2023-06-10T03:32:36;3.58;;;1.10;;
53010;SDS011;42803;55.762;38.084;2023-06-10T03:35:08;1.15;;;0.90;;
53010;SDS011;42803;55.762;38.084;2023-06-10T03:37:38;1.23;;;1.00;;
53010;SDS011;42803;55.762;38.084;2023-06-10T03:40:07;2.60;;;1.00;;
53010;SDS011;42803;55.762;38.084;2023-06-10T03:42:41;1.45;;;0.90;;
53010;SDS011;42803;55.762;38.084;2023-06-10T03:45:15;3.38;;;1.00;;
53010;SDS011;42803;55.762;38.084;2023-06-10T03:47:46;2.45;;;1.10;;
53010;SDS011;42803;55.762;38.084;2023-06-10T03:50:19;1.85;;;0.88;;
53010;SDS011;42803;55.762;38.084;2023-06-10T03:52:50;1.50;;;0.85;;
53010;SDS011;42803;55.762;38.084;2023-06-10T03:55:23;1.13;;;0.80;;
53010;SDS011;42803;55.762;38.084;2023-06-10T03:57:54;1.92;;;0.90;;
53010;SDS011;42803;55.762;38.084;2023-06-10T04:00:25;1.77;;;1.13;;
53010;SDS011;42803;55.762;38.084;2023-06-10T04:02:54;3.30;;;0.90;;
53010;SDS011;42803;55.762;38.084;2023-06-10T04:05:34;2.08;;;0.93;;
53010;SDS011;42803;55.762;38.084;2023-06-10T04:08:03;0.90;;;0.73;;
53010;SDS011;42803;55.762;38.084;2023-06-10T04:10:34;2.67;;;1.20;;
53010;SDS011;42803;55.762;38.084;2023-06-10T04:13:03;2.13;;;0.80;;
53010;SDS011;42803;55.762;38.084;2023-06-10T04:18:14;2.38;;;0.90;;
53010;SDS011;42803;55.762;38.084;2023-06-10T04:20:44;1.50;;;1.05;;
53010;SDS011;42803;55.762;38.084;2023-06-10T04:23:14;2.50;;;0.73;;
53010;SDS011;42803;55.762;38.084;2023-06-10T04:25:45;1.40;;;1.17;;
53010;SDS011;42803;55.762;38.084;2023-06-10T04:28:15;0.90;;;0.68;;
53010;SDS011;42803;55.762;38.084;2023-06-10T04:30:46;1.60;;;0.90;;
53010;SDS011;42803;55.762;38.084;2023-06-10T04:33:15;2.08;;;1.00;;
53010;SDS011;42803;55.762;38.084;2023-06-10T04:35:45;2.17;;;1.20;;
53010;SDS011;42803;55.762;38.084;2023-06-10T04:38:16;1.90;;;0.90;;
53010;SDS011;42803;55.762;38.084;2023-06-10T04:40:45;2.78;;;0.90;;
53010;SDS011;42803;55.762;38.084;2023-06-10T04:43:15;2.55;;;0.93;;
53010;SDS011;42803;55.762;38.084;2023-06-10T04:45:47;3.28;;;0.93;;
53010;SDS011;42803;55.762;38.084;2023-06-10T04:48:16;2.20;;;1.08;;
53010;SDS011;42803;55.762;38.084;2023-06-10T04:50:47;2.05;;;1.00;;
53010;SDS011;42803;55.762;38.084;2023-06-10T04:53:16;1.10;;;0.80;;
53010;SDS011;42803;55.762;38.084;2023-06-10T04:55:47;3.05;;;1.20;;
53010;SDS011;42803;55.762;38.084;2023-06-10T04:58:16;2.20;;;1.25;;
53010;SDS011;42803;55.762;38.084;2023-06-10T05:00:45;3.33;;;1.15;;
53010;SDS011;42803;55.762;38.084;2023-06-10T05:03:16;3.05;;;1.30;;
53010;SDS011;42803;55.762;38.084;2023-06-10T05:05:45;1.95;;;1.25;;
53010;SDS011;42803;55.762;38.084;2023-06-10T05:08:14;2.42;;;1.00;;
53010;SDS011;42803;55.762;38.084;2023-06-10T05:11:02;2.25;;;0.98;;
53010;SDS011;42803;55.762;38.084;2023-06-10T05:13:31;3.08;;;1.13;;
53010;SDS011;42803;55.762;38.084;2023-06-10T05:16:02;2.95;;;0.93;;
53010;SDS011;42803;55.762;38.084;2023-06-10T05:18:32;1.73;;;0.90;;
53010;SDS011;42803;55.762;38.084;2023-06-10T05:21:01;2.45;;;1.02;;
53010;SDS011;42803;55.762;38.084;2023-06-10T05:23:32;2.78;;;0.90;;
53010;SDS011;42803;55.762;38.084;2023-06-10T05:26:02;2.90;;;0.98;;
53010;SDS011;42803;55.762;38.084;2023-06-10T05:28:31;2.47;;;1.17;;
53010;SDS011;42803;55.762;38.084;2023-06-10T05:31:00;3.45;;;1.38;;
53010;SDS011;42803;55.762;38.084;2023-06-10T05:33:34;1.60;;;1.00;;
53010;SDS011;42803;55.762;38.084;2023-06-10T05:36:03;3.50;;;0.90;;
53010;SDS011;42803;55.762;38.084;2023-06-10T05:38:33;2.05;;;0.90;;
53010;SDS011;42803;55.762;38.084;2023-06-10T05:41:02;1.05;;;0.70;;
53010;SDS011;42803;55.762;38.084;2023-06-10T05:43:32;3.10;;;1.10;;
53010;SDS011;42803;55.762;38.084;2023-06-10T05:46:01;1.67;;;0.82;;
53010;SDS011;42803;55.762;38.084;2023-06-10T05:48:30;1.50;;;0.82;;
53010;SDS011;42803;55.762;38.084;2023-06-10T05:51:01;3.13;;;1.10;;
53010;SDS011;42803;55.762;38.084;2023-06-10T05:53:31;4.20;;;0.98;;
53010;SDS011;42803;55.762;38.084;2023-06-10T05:56:01;2.65;;;0.90;;
53010;SDS011;42803;55.762;38.084;2023-06-10T05:58:30;0.95;;;0.80;;
53010;SDS011;42803;55.762;38.084;2023-06-10T06:00:59;3.75;;;1.00;;
53010;SDS011;42803;55.762;38.084;2023-06-10T06:03:28;1.67;;;0.77;;
53010;SDS011;42803;55.762;38.084;2023-06-10T06:05:58;2.22;;;1.20;;
53010;SDS011;42803;55.762;38.084;2023-06-10T06:08:28;1.27;;;0.70;;
53010;SDS011;42803;55.762;38.084;2023-06-10T06:10:57;3.28;;;0.70;;
53010;SDS011;42803;55.762;38.084;2023-06-10T06:13:27;4.30;;;1.10;;
53010;SDS011;42803;55.762;38.084;2023-06-10T06:15:56;2.42;;;0.98;;
53010;SDS011;42803;55.762;38.084;2023-06-10T06:18:25;3.80;;;0.75;;
53010;SDS011;42803;55.762;38.084;2023-06-10T06:20:54;1.02;;;0.85;;
53010;SDS011;42803;55.762;38.084;2023-06-10T06:26:12;1.23;;;0.80;;
53010;SDS011;42803;55.762;38.084;2023-06-10T06:28:41;2.58;;;0.80;;
53010;SDS011;42803;55.762;38.084;2023-06-10T06:31:11;0.75;;;0.43;;
53010;SDS011;42803;55.762;38.084;2023-06-10T06:33:40;1.05;;;0.95;;
53010;SDS011;42803;55.762;38.084;2023-06-10T06:36:09;0.65;;;0.63;;
53010;SDS011;42803;55.762;38.084;2023-06-10T06:38:38;0.95;;;0.70;;
53010;SDS011;42803;55.762;38.084;2023-06-10T06:41:09;0.95;;;0.60;;
53010;SDS011;42803;55.762;38.084;2023-06-10T06:43:38;0.93;;;0.60;;
53010;SDS011;42803;55.762;38.084;2023-06-10T06:46:26;0.93;;;0.82;;
53010;SDS011;42803;55.762;38.084;2023-06-10T06:48:55;0.50;;;0.50;;
53010;SDS011;42803;55.762;38.084;2023-06-10T06:51:25;1.33;;;0.70;;
53010;SDS011;42803;55.762;38.084;2023-06-10T06:54:13;2.63;;;0.60;;
53010;SDS011;42803;55.762;38.084;2023-06-10T06:56:43;1.63;;;1.13;;
53010;SDS011;42803;55.762;38.084;2023-06-10T06:59:30;4.63;;;1.17;;
53010;SDS011;42803;55.762;38.084;2023-06-10T07:02:00;0.85;;;0.70;;
53010;SDS011;42803;55.762;38.084;2023-06-10T07:04:29;0.93;;;0.77;;
53010;SDS011;42803;55.762;38.084;2023-06-10T07:07:00;4.82;;;1.00;;
53010;SDS011;42803;55.762;38.084;2023-06-10T07:09:34;1.10;;;0.60;;
53010;SDS011;42803;55.762;38.084;2023-06-10T07:12:05;1.75;;;0.70;;
53010;SDS011;42803;55.762;38.084;2023-06-10T07:14:35;0.77;;;0.60;;
53010;SDS011;42803;55.762;38.084;2023-06-10T07:17:05;2.53;;;0.47;;
53010;SDS011;42803;55.762;38.084;2023-06-10T07:19:34;1.30;;;0.57;;
53010;SDS011;42803;55.762;38.084;2023-06-10T07:22:03;3.22;;;0.73;;
53010;SDS011;42803;55.762;38.084;2023-06-10T07:24:33;0.47;;;0.43;;
53010;SDS011;42803;55.762;38.084;2023-06-10T07:27:02;0.65;;;0.50;;
53010;SDS011;42803;55.762;38.084;2023-06-10T07:29:34;4.10;;;0.60;;
53010;SDS011;42803;55.762;38.084;2023-06-10T07:32:04;2.10;;;0.60;;
53010;SDS011;42803;55.762;38.084;2023-06-10T07:34:33;0.93;;;0.68;;
53010;SDS011;42803;55.762;38.084;2023-06-10T07:37:02;0.95;;;0.40;;
53010;SDS011;42803;55.762;38.084;2023-06-10T07:39:32;0.52;;;0.38;;
53010;SDS011;42803;55.762;38.084;2023-06-10T07:42:02;1.13;;;0.57;;
53010;SDS011;42803;55.762;38.084;2023-06-10T07:44:31;1.77;;;0.80;;
53010;SDS011;42803;55.762;38.084;2023-06-10T07:47:01;0.52;;;0.43;;
53010;SDS011;42803;55.762;38.084;2023-06-10T07:49:31;3.65;;;0.70;;
53010;SDS011;42803;55.762;38.084;2023-06-10T07:52:00;1.80;;;0.80;;
53010;SDS011;42803;55.762;38.084;2023-06-10T07:54:29;0.77;;;0.40;;
53010;SDS011;42803;55.762;38.084;2023-06-10T07:56:58;4.90;;;0.68;;
53010;SDS011;42803;55.762;38.084;2023-06-10T07:59:27;1.25;;;0.70;;
53010;SDS011;42803;55.762;38.084;2023-06-10T08:01:57;2.42;;;0.60;;
53010;SDS011;42803;55.762;38.084;2023-06-10T08:04:27;0.52;;;0.52;;
53010;SDS011;42803;55.762;38.084;2023-06-10T08:06:58;0.40;;;0.40;;
53010;SDS011;42803;55.762;38.084;2023-06-10T08:09:27;1.55;;;0.43;;
53010;SDS011;42803;55.762;38.084;2023-06-10T08:11:56;0.47;;;0.47;;
53010;SDS011;42803;55.762;38.084;2023-06-10T08:14:26;1.85;;;0.45;;
53010;SDS011;42803;55.762;38.084;2023-06-10T08:16:56;2.15;;;0.60;;
53010;SDS011;42803;55.762;38.084;2023-06-10T08:19:26;0.45;;;0.45;;
53010;SDS011;42803;55.762;38.084;2023-06-10T08:21:55;0.93;;;0.50;;
53010;SDS011;42803;55.762;38.084;2023-06-10T08:24:24;1.30;;;0.45;;
53010;SDS011;42803;55.762;38.084;2023-06-10T08:26:53;0.68;;;0.47;;
53010;SDS011;42803;55.762;38.084;2023-06-10T08:29:23;2.30;;;0.43;;
53010;SDS011;42803;55.762;38.084;2023-06-10T08:31:54;0.40;;;0.30;;
53010;SDS011;42803;55.762;38.084;2023-06-10T08:34:24;1.02;;;0.70;;
53010;SDS011;42803;55.762;38.084;2023-06-10T08:36:54;1.15;;;0.47;;
53010;SDS011;42803;55.762;38.084;2023-06-10T08:39:23;1.92;;;0.73;;
53010;SDS011;42803;55.762;38.084;2023-06-10T08:41:57;0.70;;;0.68;;
53010;SDS011;42803;55.762;38.084;2023-06-10T08:44:33;0.80;;;0.50;;
53010;SDS011;42803;55.762;38.084;2023-06-10T08:47:06;3.92;;;0.70;;
53010;SDS011;42803;55.762;38.084;2023-06-10T08:49:42;0.55;;;0.50;;
53010;SDS011;42803;55.762;38.084;2023-06-10T08:52:15;0.32;;;0.32;;
53010;SDS011;42803;55.762;38.084;2023-06-10T08:54:47;1.10;;;0.50;;
53010;SDS011;42803;55.762;38.084;2023-06-10T08:59:49;2.10;;;0.50;;
53010;SDS011;42803;55.762;38.084;2023-06-10T09:02:18;1.10;;;0.30;;
53010;SDS011;42803;55.762;38.084;2023-06-10T09:04:49;0.60;;;0.50;;
53010;SDS011;42803;55.762;38.084;2023-06-10T09:07:19;0.43;;;0.38;;
53010;SDS011;42803;55.762;38.084;2023-06-10T09:09:51;0.88;;;0.50;;
53010;SDS011;42803;55.762;38.084;2023-06-10T09:12:21;0.40;;;0.40;;
53010;SDS011;42803;55.762;38.084;2023-06-10T09:14:51;0.70;;;0.30;;
53010;SDS011;42803;55.762;38.084;2023-06-10T09:17:21;0.55;;;0.50;;
53010;SDS011;42803;55.762;38.084;2023-06-10T09:19:51;1.27;;;0.50;;
53010;SDS011;42803;55.762;38.084;2023-06-10T09:22:24;2.50;;;0.60;;
53010;SDS011;42803;55.762;38.084;2023-06-10T09:25:01;1.40;;;0.50;;
53010;SDS011;42803;55.762;38.084;2023-06-10T09:27:32;0.55;;;0.30;;
53010;SDS011;42803;55.762;38.084;2023-06-10T09:30:13;0.85;;;0.40;;
53010;SDS011;42803;55.762;38.084;2023-06-10T09:32:53;3.03;;;0.70;;
53010;SDS011;42803;55.762;38.084;2023-06-10T09:35:24;0.65;;;0.60;;
53010;SDS011;42803;55.762;38.084;2023-06-10T09:37:56;1.55;;;0.70;;
53010;SDS011;42803;55.762;38.084;2023-06-10T09:40:27;1.42;;;0.65;;
53010;SDS011;42803;55.762;38.084;2023-06-10T09:42:57;3.53;;;0.45;;
53010;SDS011;42803;55.762;38.084;2023-06-10T09:45:29;2.92;;;0.75;;
53010;SDS011;42803;55.762;38.084;2023-06-10T09:48:00;0.82;;;0.63;;
53010;SDS011;42803;55.762;38.084;2023-06-10T09:50:32;0.93;;;0.60;;
53010;SDS011;42803;55.762;38.084;2023-06-10T09:53:05;1.48;;;0.50;;
53010;SDS011;42803;55.762;38.084;2023-06-10T09:55:37;0.75;;;0.50;;
53010;SDS011;42803;55.762;38.084;2023-06-10T09:58:06;0.60;;;0.47;;
53010;SDS011;42803;55.762;38.084;2023-06-10T10:00:36;0.55;;;0.55;;
53010;SDS011;42803;55.762;38.084;2023-06-10T10:03:05;1.98;;;0.60;;
53010;SDS011;42803;55.762;38.084;2023-06-10T10:05:35;0.88;;;0.70;;
53010;SDS011;42803;55.762;38.084;2023-06-10T10:08:05;1.48;;;0.50;;
53010;SDS011;42803;55.762;38.084;2023-06-10T10:10:34;1.67;;;0.73;;
53010;SDS011;42803;55.762;38.084;2023-06-10T10:13:04;5.20;;;0.88;;
53010;SDS011;42803;55.762;38.084;2023-06-10T10:15:34;2.08;;;0.80;;
53010;SDS011;42803;55.762;38.084;2023-06-10T10:18:07;1.17;;;0.50;;
53010;SDS011;42803;55.762;38.084;2023-06-10T10:20:40;1.02;;;0.63;;
53010;SDS011;42803;55.762;38.084;2023-06-10T10:23:18;1.17;;;0.65;;
53010;SDS011;42803;55.762;38.084;2023-06-10T10:25:55;2.95;;;0.60;;
53010;SDS011;42803;55.762;38.084;2023-06-10T10:28:29;0.50;;;0.40;;
53010;SDS011;42803;55.762;38.084;2023-06-10T10:31:07;2.78;;;0.70;;
53010;SDS011;42803;55.762;38.084;2023-06-10T10:33:40;0.75;;;0.65;;
53010;SDS011;42803;55.762;38.084;2023-06-10T10:36:24;1.77;;;0.55;;
53010;SDS011;42803;55.762;38.084;2023-06-10T10:38:55;0.43;;;0.43;;
53010;SDS011;42803;55.762;38.084;2023-06-10T10:41:25;2.03;;;0.60;;
53010;SDS011;42803;55.762;38.084;2023-06-10T10:43:55;0.60;;;0.60;;
53010;SDS011;42803;55.762;38.084;2023-06-10T10:46:25;1.05;;;0.60;;
53010;SDS011;42803;55.762;38.084;2023-06-10T10:48:54;1.70;;;0.80;;
53010;SDS011;42803;55.762;38.084;2023-06-10T10:51:24;2.05;;;0.60;;
53010;SDS011;42803;55.762;38.084;2023-06-10T10:54:13;1.55;;;0.60;;
53010;SDS011;42803;55.762;38.084;2023-06-10T10:59:51;0.80;;;0.60;;
53010;SDS011;42803;55.762;38.084;2023-06-10T11:02:34;4.03;;;0.55;;
53010;SDS011;42803;55.762;38.084;2023-06-10T11:05:06;1.00;;;0.60;;
53010;SDS011;42803;55.762;38.084;2023-06-10T11:07:37;4.78;;;0.80;;
53010;SDS011;42803;55.762;38.084;2023-06-10T11:10:09;1.00;;;0.50;;
53010;SDS011;42803;55.762;38.084;2023-06-10T11:12:49;1.27;;;0.50;;
53010;SDS011;42803;55.762;38.084;2023-06-10T11:15:22;1.10;;;0.60;;
53010;SDS011;42803;55.762;38.084;2023-06-10T11:18:06;5.30;;;0.60;;
53010;SDS011;42803;55.762;38.084;2023-06-10T11:20:45;1.10;;;0.52;;
53010;SDS011;42803;55.762;38.084;2023-06-10T11:23:25;1.02;;;0.50;;
53010;SDS011;42803;55.762;38.084;2023-06-10T11:29:06;0.63;;;0.47;;
53010;SDS011;42803;55.762;38.084;2023-06-10T11:31:42;1.98;;;0.57;;
53010;SDS011;42803;55.762;38.084;2023-06-10T11:34:13;1.98;;;0.60;;
53010;SDS011;42803;55.762;38.084;2023-06-10T11:36:44;0.55;;;0.52;;
53010;SDS011;42803;55.762;38.084;2023-06-10T11:39:13;1.02;;;0.85;;
53010;SDS011;42803;55.762;38.084;2023-06-10T11:41:45;0.88;;;0.57;;
53010;SDS011;42803;55.762;38.084;2023-06-10T11:44:15;0.70;;;0.45;;
53010;SDS011;42803;55.762;38.084;2023-06-10T11:46:47;0.63;;;0.60;;
53010;SDS011;42803;55.762;38.084;2023-06-10T11:49:17;3.30;;;1.10;;
53010;SDS011;42803;55.762;38.084;2023-06-10T11:51:46;7.22;;;0.80;;
53010;SDS011;42803;55.762;38.084;2023-06-10T11:54:21;1.02;;;0.70;;
53010;SDS011;42803;55.762;38.084;2023-06-10T11:56:56;3.67;;;0.75;;
53010;SDS011;42803;55.762;38.084;2023-06-10T11:59:26;1.23;;;0.70;;
53010;SDS011;42803;55.762;38.084;2023-06-10T12:01:56;2.85;;;0.73;;
53010;SDS011;42803;55.762;38.084;2023-06-10T12:04:27;0.85;;;0.70;;
53010;SDS011;42803;55.762;38.084;2023-06-10T12:06:56;1.60;;;0.60;;
53010;SDS011;42803;55.762;38.084;2023-06-10T12:09:26;1.40;;;0.52;;
53010;SDS011;42803;55.762;38.084;2023-06-10T12:11:58;1.63;;;0.63;;
53010;SDS011;42803;55.762;38.084;2023-06-10T12:17:37;1.83;;;0.63;;
53010;SDS011;42803;55.762;38.084;2023-06-10T12:20:07;1.38;;;1.00;;
53010;SDS011;42803;55.762;38.084;2023-06-10T12:22:39;4.40;;;1.30;;
53010;SDS011;42803;55.762;38.084;2023-06-10T12:25:10;3.28;;;1.15;;
53010;SDS011;42803;55.762;38.084;2023-06-10T12:27:49;1.30;;;0.65;;
53010;SDS011;42803;55.762;38.084;2023-06-10T12:30:20;3.00;;;0.60;;
53010;SDS011;42803;55.762;38.084;2023-06-10T12:32:50;2.25;;;0.70;;
53010;SDS011;42803;55.762;38.084;2023-06-10T12:35:21;3.13;;;0.73;;
53010;SDS011;42803;55.762;38.084;2023-06-10T12:37:55;1.38;;;0.63;;
53010;SDS011;42803;55.762;38.084;2023-06-10T12:40:28;0.50;;;0.50;;
53010;SDS011;42803;55.762;38.084;2023-06-10T12:43:00;1.53;;;0.57;;
53010;SDS011;42803;55.762;38.084;2023-06-10T12:45:30;1.15;;;0.82;;
53010;SDS011;42803;55.762;38.084;2023-06-10T12:48:06;0.93;;;0.50;;
53010;SDS011;42803;55.762;38.084;2023-06-10T12:50:37;0.90;;;0.60;;
53010;SDS011;42803;55.762;38.084;2023-06-10T12:53:09;1.88;;;0.75;;
53010;SDS011;42803;55.762;38.084;2023-06-10T12:55:39;3.65;;;0.70;;
53010;SDS011;42803;55.762;38.084;2023-06-10T12:58:10;5.35;;;0.65;;
53010;SDS011;42803;55.762;38.084;2023-06-10T13:00:39;1.27;;;0.80;;
53010;SDS011;42803;55.762;38.084;2023-06-10T13:03:09;1.27;;;0.60;;
53010;SDS011;42803;55.762;38.084;2023-06-10T13:05:39;3.33;;;0.88;;
53010;SDS011;42803;55.762;38.084;2023-06-10T13:08:08;1.15;;;0.70;;
53010;SDS011;42803;55.762;38.084;2023-06-10T13:10:38;2.20;;;0.88;;
53010;SDS011;42803;55.762;38.084;2023-06-10T13:13:07;1.98;;;0.70;;
53010;SDS011;42803;55.762;38.084;2023-06-10T13:15:39;0.68;;;0.60;;
53010;SDS011;42803;55.762;38.084;2023-06-10T13:18:10;1.90;;;0.73;;
53010;SDS011;42803;55.762;38.084;2023-06-10T13:20:40;1.17;;;0.50;;
53010;SDS011;42803;55.762;38.084;2023-06-10T13:23:09;3.10;;;0.80;;
53010;SDS011;42803;55.762;38.084;2023-06-10T13:25:38;2.22;;;0.70;;
53010;SDS011;42803;55.762;38.084;2023-06-10T13:28:10;1.58;;;0.70;;
53010;SDS011;42803;55.762;38.084;2023-06-10T13:30:39;0.65;;;0.50;;
53010;SDS011;42803;55.762;38.084;2023-06-10T13:33:08;5.95;;;0.80;;
53010;SDS011;42803;55.762;38.084;2023-06-10T13:35:38;0.90;;;0.60;;
53010;SDS011;42803;55.762;38.084;2023-06-10T13:38:08;1.90;;;0.60;;
53010;SDS011;42803;55.762;38.084;2023-06-10T13:40:37;3.83;;;0.80;;
53010;SDS011;42803;55.762;38.084;2023-06-10T13:43:06;2.33;;;0.57;;
53010;SDS011;42803;55.762;38.084;2023-06-10T13:45:38;0.88;;;0.63;;
53010;SDS011;42803;55.762;38.084;2023-06-10T13:48:08;0.70;;;0.68;;
53010;SDS011;42803;55.762;38.084;2023-06-10T13:50:37;2.28;;;0.70;;
53010;SDS011;42803;55.762;38.084;2023-06-10T13:53:06;0.60;;;0.52;;
53010;SDS011;42803;55.762;38.084;2023-06-10T13:55:35;2.65;;;0.82;;
53010;SDS011;42803;55.762;38.084;2023-06-10T13:58:05;1.55;;;0.60;;
53010;SDS011;42803;55.762;38.084;2023-06-10T14:00:34;2.22;;;0.75;;
53010;SDS011;42803;55.762;38.084;2023-06-10T14:03:04;4.82;;;0.73;;
53010;SDS011;42803;55.762;38.084;2023-06-10T14:05:34;2.25;;;0.57;;
53010;SDS011;42803;55.762;38.084;2023-06-10T14:08:03;1.70;;;0.70;;
53010;SDS011;42803;55.762;38.084;2023-06-10T14:10:35;2.78;;;0.60;;
53010;SDS011;42803;55.762;38.084;2023-06-10T14:13:04;0.93;;;0.77;;
53010;SDS011;42803;55.762;38.084;2023-06-10T14:15:34;1.70;;;0.50;;
53010;SDS011;42803;55.762;38.084;2023-06-10T14:18:05;0.52;;;0.50;;
53010;SDS011;42803;55.762;38.084;2023-06-10T14:20:34;1.02;;;0.80;;
53010;SDS011;42803;55.762;38.084;2023-06-10T14:23:03;0.95;;;0.70;;
53010;SDS011;42803;55.762;38.084;2023-06-10T14:25:37;2.20;;;0.60;;
53010;SDS011;42803;55.762;38.084;2023-06-10T14:28:06;1.35;;;0.60;;
53010;SDS011;42803;55.762;38.084;2023-06-10T14:30:35;0.60;;;0.60;;
53010;SDS011;42803;55.762;38.084;2023-06-10T14:33:06;1.67;;;0.70;;
53010;SDS011;42803;55.762;38.084;2023-06-10T14:35:35;0.50;;;0.50;;
53010;SDS011;42803;55.762;38.084;2023-06-10T14:38:05;4.43;;;0.70;;
53010;SDS011;42803;55.762;38.084;2023-06-10T14:40:35;0.95;;;0.55;;
53010;SDS011;42803;55.762;38.084;2023-06-10T14:43:04;2.85;;;0.70;;
53010;SDS011;42803;55.762;38.084;2023-06-10T14:45:37;4.05;;;0.88;;
53010;SDS011;42803;55.762;38.084;2023-06-10T14:48:08;1.45;;;0.50;;
53010;SDS011;42803;55.762;38.084;2023-06-10T14:50:38;1.15;;;0.77;;
53010;SDS011;42803;55.762;38.084;2023-06-10T14:53:12;2.38;;;0.70;;
53010;SDS011;42803;55.762;38.084;2023-06-10T14:55:41;0.88;;;0.80;;
53010;SDS011;42803;55.762;38.084;2023-06-10T14:58:11;2.95;;;0.73;;
53010;SDS011;42803;55.762;38.084;2023-06-10T15:00:40;1.50;;;0.50;;
53010;SDS011;42803;55.762;38.084;2023-06-10T15:03:11;1.15;;;0.60;;
53010;SDS011;42803;55.762;38.084;2023-06-10T15:05:40;0.80;;;0.60;;
53010;SDS011;42803;55.762;38.084;2023-06-10T15:08:09;2.60;;;0.60;;
53010;SDS011;42803;55.762;38.084;2023-06-10T15:10:39;4.20;;;1.10;;
53010;SDS011;42803;55.762;38.084;2023-06-10T15:13:08;0.60;;;0.60;;